sensor_id;sensor_type;location;lat;lon;timestamp;P1;durP1;ratioP1;P2;durP2;ratioP2
14153;SDS011;7157;53.144;7.570;2022-12-29T00:00:37;3.28;;;2.10;;
14153;SDS011;7157;53.144;7.570;2022-12-29T00:10:41;4.45;;;2.47;;
14153;SDS011;7157;53.144;7.570;2022-12-29T00:20:44;7.15;;;2.75;;
14153;SDS011;7157;53.144;7.570;2022-12-29T00:41:31;3.63;;;2.25;;
14153;SDS011;7157;53.144;7.570;2022-12-29T00:51:53;5.10;;;2.85;;
14153;SDS011;7157;53.144;7.570;2022-12-29T01:01:57;5.82;;;3.10;;
14153;SDS011;7157;53.144;7.570;2022-12-29T01:12:02;6.60;;;2.75;;
14153;SDS011;7157;53.144;7.570;2022-12-29T01:22:05;5.00;;;2.70;;
14153;SDS011;7157;53.144;7.570;2022-12-29T01:32:10;4.07;;;2.33;;
14153;SDS011;7157;53.144;7.570;2022-12-29T01:42:14;3.90;;;2.28;;
14153;SDS011;7157;53.144;7.570;2022-12-29T01:52:20;5.10;;;2.17;;
14153;SDS011;7157;53.144;7.570;2022-12-29T02:02:26;3.70;;;2.10;;
14153;SDS011;7157;53.144;7.570;2022-12-29T02:12:35;3.85;;;1.92;;
14153;SDS011;7157;53.144;7.570;2022-12-29T02:22:40;3.40;;;1.67;;
14153;SDS011;7157;53.144;7.570;2022-12-29T02:32:55;4.03;;;1.88;;
14153;SDS011;7157;53.144;7.570;2022-12-29T02:43:03;2.37;;;1.20;;
14153;SDS011;7157;53.144;7.570;2022-12-29T02:53:15;10.13;;;1.50;;
14153;SDS011;7157;53.144;7.570;2022-12-29T03:03:44;3.88;;;1.35;;
14153;SDS011;7157;53.144;7.570;2022-12-29T03:13:59;3.03;;;1.35;;
14153;SDS011;7157;53.144;7.570;2022-12-29T03:24:26;3.40;;;1.17;;
14153;SDS011;7157;53.144;7.570;2022-12-29T03:34:32;2.10;;;1.00;;
14153;SDS011;7157;53.144;7.570;2022-12-29T03:44:37;1.98;;;0.90;;
14153;SDS011;7157;53.144;7.570;2022-12-29T03:54:43;2.55;;;0.82;;
14153;SDS011;7157;53.144;7.570;2022-12-29T04:04:46;1.90;;;0.90;;
14153;SDS011;7157;53.144;7.570;2022-12-29T04:14:50;4.30;;;1.00;;
14153;SDS011;7157;53.144;7.570;2022-12-29T04:24:53;1.60;;;0.93;;
14153;SDS011;7157;53.144;7.570;2022-12-29T04:34:58;2.97;;;1.30;;
14153;SDS011;7157;53.144;7.570;2022-12-29T04:45:01;2.95;;;1.20;;
14153;SDS011;7157;53.144;7.570;2022-12-29T04:55:06;9.98;;;1.42;;
14153;SDS011;7157;53.144;7.570;2022-12-29T05:05:09;1.85;;;0.90;;
14153;SDS011;7157;53.144;7.570;2022-12-29T05:15:14;4.43;;;1.10;;
14153;SDS011;7157;53.144;7.570;2022-12-29T05:25:16;2.63;;;1.10;;
14153;SDS011;7157;53.144;7.570;2022-12-29T05:35:21;2.53;;;1.05;;
14153;SDS011;7157;53.144;7.570;2022-12-29T05:45:23;2.97;;;0.82;;
14153;SDS011;7157;53.144;7.570;2022-12-29T05:55:27;4.30;;;0.70;;
14153;SDS011;7157;53.144;7.570;2022-12-29T06:05:30;4.45;;;1.23;;
14153;SDS011;7157;53.144;7.570;2022-12-29T06:15:35;2.45;;;0.63;;
14153;SDS011;7157;53.144;7.570;2022-12-29T06:25:38;3.42;;;1.00;;
14153;SDS011;7157;53.144;7.570;2022-12-29T06:35:42;3.28;;;1.00;;
14153;SDS011;7157;53.144;7.570;2022-12-29T06:45:47;4.25;;;0.93;;
14153;SDS011;7157;53.144;7.570;2022-12-29T06:55:51;1.60;;;0.70;;
14153;SDS011;7157;53.144;7.570;2022-12-29T07:05:54;2.13;;;0.70;;
14153;SDS011;7157;53.144;7.570;2022-12-29T07:16:04;4.05;;;0.70;;
14153;SDS011;7157;53.144;7.570;2022-12-29T07:26:08;6.28;;;1.10;;
14153;SDS011;7157;53.144;7.570;2022-12-29T07:36:15;9.32;;;1.23;;
14153;SDS011;7157;53.144;7.570;2022-12-29T07:46:18;2.40;;;0.65;;
14153;SDS011;7157;53.144;7.570;2022-12-29T07:56:42;3.30;;;1.00;;
14153;SDS011;7157;53.144;7.570;2022-12-29T08:06:45;9.38;;;1.48;;
14153;SDS011;7157;53.144;7.570;2022-12-29T08:16:49;7.88;;;0.73;;
14153;SDS011;7157;53.144;7.570;2022-12-29T08:26:52;7.63;;;1.77;;
14153;SDS011;7157;53.144;7.570;2022-12-29T08:36:56;5.63;;;1.08;;
14153;SDS011;7157;53.144;7.570;2022-12-29T08:46:59;8.43;;;1.40;;
14153;SDS011;7157;53.144;7.570;2022-12-29T08:57:03;4.22;;;1.02;;
14153;SDS011;7157;53.144;7.570;2022-12-29T09:07:06;4.70;;;1.08;;
14153;SDS011;7157;53.144;7.570;2022-12-29T09:17:10;5.80;;;1.50;;
14153;SDS011;7157;53.144;7.570;2022-12-29T09:27:30;9.88;;;2.15;;
14153;SDS011;7157;53.144;7.570;2022-12-29T09:37:34;4.93;;;0.90;;
14153;SDS011;7157;53.144;7.570;2022-12-29T09:47:37;5.70;;;1.05;;
14153;SDS011;7157;53.144;7.570;2022-12-29T09:57:43;5.82;;;1.05;;
14153;SDS011;7157;53.144;7.570;2022-12-29T10:07:50;4.25;;;0.82;;
14153;SDS011;7157;53.144;7.570;2022-12-29T10:18:01;3.80;;;1.02;;
14153;SDS011;7157;53.144;7.570;2022-12-29T10:28:15;5.28;;;0.93;;
14153;SDS011;7157;53.144;7.570;2022-12-29T10:38:25;8.13;;;1.80;;
14153;SDS011;7157;53.144;7.570;2022-12-29T10:48:32;4.88;;;1.05;;
14153;SDS011;7157;53.144;7.570;2022-12-29T10:58:38;6.72;;;1.15;;
14153;SDS011;7157;53.144;7.570;2022-12-29T11:08:51;4.15;;;1.42;;
14153;SDS011;7157;53.144;7.570;2022-12-29T11:18:59;4.93;;;1.42;;
14153;SDS011;7157;53.144;7.570;2022-12-29T11:29:10;4.78;;;0.75;;
14153;SDS011;7157;53.144;7.570;2022-12-29T11:39:27;4.10;;;1.13;;
14153;SDS011;7157;53.144;7.570;2022-12-29T11:49:36;4.53;;;1.15;;
14153;SDS011;7157;53.144;7.570;2022-12-29T11:59:42;5.90;;;1.00;;
14153;SDS011;7157;53.144;7.570;2022-12-29T12:09:47;5.90;;;1.05;;
14153;SDS011;7157;53.144;7.570;2022-12-29T12:20:04;3.63;;;1.00;;
14153;SDS011;7157;53.144;7.570;2022-12-29T12:30:19;4.95;;;0.90;;
14153;SDS011;7157;53.144;7.570;2022-12-29T12:50:59;8.93;;;2.42;;
14153;SDS011;7157;53.144;7.570;2022-12-29T13:01:14;14.75;;;2.53;;
14153;SDS011;7157;53.144;7.570;2022-12-29T13:11:33;6.88;;;1.67;;
14153;SDS011;7157;53.144;7.570;2022-12-29T13:21:53;10.65;;;1.88;;
14153;SDS011;7157;53.144;7.570;2022-12-29T13:32:13;10.70;;;2.30;;
14153;SDS011;7157;53.144;7.570;2022-12-29T13:42:24;10.80;;;2.20;;
14153;SDS011;7157;53.144;7.570;2022-12-29T13:52:32;9.88;;;1.70;;
14153;SDS011;7157;53.144;7.570;2022-12-29T14:12:49;12.05;;;2.20;;
14153;SDS011;7157;53.144;7.570;2022-12-29T14:22:56;7.35;;;1.33;;
14153;SDS011;7157;53.144;7.570;2022-12-29T14:33:02;9.88;;;1.45;;
14153;SDS011;7157;53.144;7.570;2022-12-29T14:43:11;14.75;;;1.70;;
14153;SDS011;7157;53.144;7.570;2022-12-29T15:03:48;9.23;;;1.53;;
14153;SDS011;7157;53.144;7.570;2022-12-29T15:13:53;4.03;;;1.27;;
14153;SDS011;7157;53.144;7.570;2022-12-29T15:23:56;4.85;;;1.52;;
14153;SDS011;7157;53.144;7.570;2022-12-29T15:34:07;6.07;;;1.20;;
14153;SDS011;7157;53.144;7.570;2022-12-29T15:44:14;12.13;;;1.70;;
14153;SDS011;7157;53.144;7.570;2022-12-29T15:54:23;4.82;;;1.48;;
14153;SDS011;7157;53.144;7.570;2022-12-29T16:04:30;10.68;;;1.80;;
14153;SDS011;7157;53.144;7.570;2022-12-29T16:14:56;16.92;;;2.53;;
14153;SDS011;7157;53.144;7.570;2022-12-29T16:25:01;10.60;;;2.20;;
14153;SDS011;7157;53.144;7.570;2022-12-29T16:35:12;12.02;;;2.63;;
14153;SDS011;7157;53.144;7.570;2022-12-29T16:56:14;6.60;;;2.43;;
14153;SDS011;7157;53.144;7.570;2022-12-29T17:06:20;13.70;;;2.42;;
14153;SDS011;7157;53.144;7.570;2022-12-29T17:16:25;10.75;;;2.42;;
14153;SDS011;7157;53.144;7.570;2022-12-29T17:26:28;10.93;;;1.95;;
14153;SDS011;7157;53.144;7.570;2022-12-29T17:36:32;9.70;;;1.98;;
14153;SDS011;7157;53.144;7.570;2022-12-29T17:46:35;3.65;;;1.20;;
14153;SDS011;7157;53.144;7.570;2022-12-29T17:56:39;2.67;;;1.17;;
14153;SDS011;7157;53.144;7.570;2022-12-29T18:06:41;1.63;;;0.70;;
14153;SDS011;7157;53.144;7.570;2022-12-29T18:16:46;1.40;;;0.63;;
14153;SDS011;7157;53.144;7.570;2022-12-29T18:26:50;3.58;;;1.25;;
14153;SDS011;7157;53.144;7.570;2022-12-29T18:36:54;8.35;;;1.73;;
14153;SDS011;7157;53.144;7.570;2022-12-29T18:46:58;3.72;;;1.10;;
14153;SDS011;7157;53.144;7.570;2022-12-29T18:57:04;2.97;;;1.10;;
14153;SDS011;7157;53.144;7.570;2022-12-29T19:07:06;6.28;;;2.38;;
14153;SDS011;7157;53.144;7.570;2022-12-29T19:17:11;16.95;;;2.45;;
14153;SDS011;7157;53.144;7.570;2022-12-29T19:27:14;4.68;;;2.30;;
14153;SDS011;7157;53.144;7.570;2022-12-29T19:37:18;7.53;;;2.20;;
14153;SDS011;7157;53.144;7.570;2022-12-29T19:47:21;7.70;;;1.90;;
14153;SDS011;7157;53.144;7.570;2022-12-29T19:57:33;7.10;;;2.15;;
14153;SDS011;7157;53.144;7.570;2022-12-29T20:07:36;7.20;;;2.03;;
14153;SDS011;7157;53.144;7.570;2022-12-29T20:17:40;9.05;;;2.42;;
14153;SDS011;7157;53.144;7.570;2022-12-29T20:28:03;5.90;;;1.92;;
14153;SDS011;7157;53.144;7.570;2022-12-29T20:38:08;7.28;;;2.50;;
14153;SDS011;7157;53.144;7.570;2022-12-29T20:48:10;16.10;;;2.17;;
14153;SDS011;7157;53.144;7.570;2022-12-29T20:58:14;10.82;;;2.22;;
14153;SDS011;7157;53.144;7.570;2022-12-29T21:08:26;7.03;;;1.88;;
14153;SDS011;7157;53.144;7.570;2022-12-29T21:18:31;11.57;;;2.50;;
14153;SDS011;7157;53.144;7.570;2022-12-29T21:28:36;8.75;;;1.92;;
14153;SDS011;7157;53.144;7.570;2022-12-29T21:38:41;4.25;;;1.42;;
14153;SDS011;7157;53.144;7.570;2022-12-29T21:48:46;13.43;;;2.72;;
14153;SDS011;7157;53.144;7.570;2022-12-29T21:58:50;6.47;;;1.77;;
14153;SDS011;7157;53.144;7.570;2022-12-29T22:09:10;5.43;;;1.50;;
14153;SDS011;7157;53.144;7.570;2022-12-29T22:19:32;5.45;;;1.67;;
14153;SDS011;7157;53.144;7.570;2022-12-29T22:29:35;11.18;;;1.77;;
14153;SDS011;7157;53.144;7.570;2022-12-29T22:39:40;12.00;;;1.92;;
14153;SDS011;7157;53.144;7.570;2022-12-29T22:49:43;10.88;;;1.67;;
14153;SDS011;7157;53.144;7.570;2022-12-29T22:59:50;12.75;;;1.70;;
14153;SDS011;7157;53.144;7.570;2022-12-29T23:09:53;7.40;;;1.83;;
14153;SDS011;7157;53.144;7.570;2022-12-29T23:19:57;8.70;;;2.03;;
14153;SDS011;7157;53.144;7.570;2022-12-29T23:30:01;10.35;;;2.40;;
14153;SDS011;7157;53.144;7.570;2022-12-29T23:40:06;8.88;;;1.70;;
14153;SDS011;7157;53.144;7.570;2022-12-29T23:50:09;9.52;;;2.22;;
